createdAt,value
2019-04-11T00:01:48.592Z,5.30
2019-04-11T00:04:17.868Z,5.33
2019-04-11T00:06:47.893Z,5.10
2019-04-11T00:09:18.739Z,5.10
2019-04-11T00:11:48.344Z,5.53
2019-04-11T00:14:20.010Z,5.42
2019-04-11T00:16:49.900Z,5.20
2019-04-11T00:19:19.356Z,5.50
2019-04-11T00:21:49.944Z,5.08
2019-04-11T00:24:20.781Z,5.42
2019-04-11T00:26:50.741Z,5.22
2019-04-11T00:29:22.633Z,5.15
2019-04-11T00:31:56.922Z,4.83
2019-04-11T00:34:26.864Z,5.45
2019-04-11T00:36:57.317Z,5.55
2019-04-11T00:39:27.806Z,5.10
2019-04-11T00:41:58.528Z,5.10
2019-04-11T00:44:29.100Z,4.97
2019-04-11T00:46:58.562Z,5.00
2019-04-11T00:49:30.404Z,5.10
2019-04-11T00:52:00.369Z,5.75
2019-04-11T00:54:30.950Z,4.92
2019-04-11T00:57:00.864Z,5.78
2019-04-11T00:59:30.376Z,5.62
2019-04-11T01:02:01.661Z,5.78
2019-04-11T01:04:32.762Z,5.30
2019-04-11T01:07:02.712Z,5.28
2019-04-11T01:09:32.652Z,5.58
2019-04-11T01:12:02.648Z,5.58
2019-04-11T01:14:34.175Z,5.08
2019-04-11T01:17:06.191Z,5.95
2019-04-11T01:19:38.690Z,5.50
2019-04-11T01:22:08.301Z,5.80
2019-04-11T01:24:37.793Z,5.28
2019-04-11T01:27:07.758Z,5.70
2019-04-11T01:29:37.744Z,5.65
2019-04-11T01:32:08.823Z,6.00
2019-04-11T01:34:42.590Z,5.47
2019-04-11T01:37:12.070Z,5.60
2019-04-11T01:39:47.397Z,6.10
2019-04-11T01:42:17.690Z,6.00
2019-04-11T01:44:50.562Z,6.22
2019-04-11T01:47:39.340Z,6.12
2019-04-11T01:50:12.506Z,5.95
2019-04-11T01:52:42.483Z,5.90
2019-04-11T01:55:14.322Z,6.03
2019-04-11T01:57:44.706Z,5.70
2019-04-11T02:00:17.750Z,6.55
2019-04-11T02:02:57.688Z,6.37
2019-04-11T02:05:29.764Z,6.08
2019-04-11T02:07:59.197Z,6.40
2019-04-11T02:10:28.756Z,6.08
2019-04-11T02:12:59.643Z,6.17
2019-04-11T02:15:30.337Z,5.87
2019-04-11T02:17:59.894Z,6.65
2019-04-11T02:20:29.492Z,6.33
2019-04-11T02:23:03.228Z,6.00
2019-04-11T02:25:44.934Z,6.67
2019-04-11T02:28:20.230Z,6.15
2019-04-11T02:30:53.555Z,6.85
2019-04-11T02:33:26.753Z,6.60
2019-04-11T02:35:57.468Z,5.87
2019-04-11T02:38:28.360Z,6.67
2019-04-11T02:41:01.154Z,7.30
2019-04-11T02:43:36.440Z,6.40
2019-04-11T02:46:17.448Z,7.05
2019-04-11T02:48:37.535Z,6.35
2019-04-11T02:51:07.637Z,6.42
2019-04-11T02:53:38.840Z,6.37
2019-04-11T02:56:11.732Z,7.33
2019-04-11T02:58:46.327Z,6.92
2019-04-11T03:01:19.959Z,7.65
2019-04-11T03:03:53.992Z,7.17
2019-04-11T03:06:25.814Z,6.25
2019-04-11T03:08:57.346Z,7.00
2019-04-11T03:11:30.226Z,7.28
2019-04-11T03:14:03.281Z,7.37
2019-04-11T03:16:51.981Z,7.67
2019-04-11T03:19:21.152Z,6.62
2019-04-11T03:21:47.378Z,7.10
2019-04-11T03:24:18.859Z,7.53
2019-04-11T03:26:49.818Z,7.40
2019-04-11T03:29:20.841Z,7.60
2019-04-11T03:32:32.244Z,7.50
2019-04-11T03:35:09.398Z,8.00
2019-04-11T03:37:23.467Z,7.05
2019-04-11T03:39:45.765Z,7.78
2019-04-11T03:42:15.739Z,7.78
2019-04-11T03:44:35.265Z,7.85
2019-04-11T03:47:16.537Z,7.93
2019-04-11T03:49:39.806Z,8.03
2019-04-11T03:52:01.344Z,8.70
2019-04-11T03:54:31.863Z,8.05
2019-04-11T03:57:05.541Z,7.75
2019-04-11T03:59:40.569Z,8.10
2019-04-11T04:02:12.369Z,7.85
2019-04-11T04:04:43.633Z,8.20
2019-04-11T04:07:16.476Z,8.05
2019-04-11T04:09:46.180Z,7.72
2019-04-11T04:12:16.691Z,8.65
2019-04-11T04:14:59.150Z,7.92
2019-04-11T04:20:08.951Z,7.28
2019-04-11T04:22:50.447Z,7.70
2019-04-11T04:25:21.369Z,8.30
2019-04-11T04:27:54.622Z,8.15
2019-04-11T04:30:27.064Z,7.75
2019-04-11T04:32:56.846Z,8.70
2019-04-11T04:35:28.468Z,8.43
2019-04-11T04:37:59.713Z,7.92
2019-04-11T04:40:49.946Z,8.53
2019-04-11T04:43:05.934Z,8.28
2019-04-11T04:45:54.114Z,8.30
2019-04-11T04:48:11.640Z,8.65
2019-04-11T04:50:40.049Z,8.80
2019-04-11T04:53:09.505Z,8.50
2019-04-11T04:55:41.209Z,8.43
2019-04-11T04:58:10.895Z,8.90
2019-04-11T05:00:40.408Z,8.98
2019-04-11T05:03:10.376Z,8.45
2019-04-11T05:05:40.112Z,9.23
2019-04-11T05:08:10.723Z,9.45
2019-04-11T05:10:41.708Z,8.90
2019-04-11T05:13:12.972Z,9.48
2019-04-11T05:15:43.438Z,27.20
2019-04-11T05:18:16.962Z,10.88
2019-04-11T05:20:44.522Z,9.90
2019-04-11T05:23:13.997Z,10.05
2019-04-11T05:25:45.253Z,9.28
2019-04-11T05:28:19.251Z,9.23
2019-04-11T05:30:51.161Z,9.10
2019-04-11T05:33:21.668Z,9.50
2019-04-11T05:35:52.070Z,9.35
2019-04-11T05:38:21.663Z,9.68
2019-04-11T05:40:52.339Z,9.90
2019-04-11T05:43:24.616Z,10.28
2019-04-11T05:45:55.107Z,9.95
2019-04-11T05:48:34.811Z,9.98
2019-04-11T05:51:04.597Z,10.08
2019-04-11T05:53:36.232Z,9.75
2019-04-11T05:56:09.178Z,10.18
2019-04-11T05:58:44.315Z,9.78
2019-04-11T06:01:14.439Z,10.43
2019-04-11T06:03:49.209Z,9.65
2019-04-11T06:06:31.921Z,10.32
2019-04-11T06:09:04.193Z,9.43
2019-04-11T06:11:52.204Z,10.28
2019-04-11T06:14:24.936Z,9.65
2019-04-11T06:16:57.450Z,9.53
2019-04-11T06:19:43.984Z,9.88
2019-04-11T06:22:13.415Z,9.53
2019-04-11T06:24:56.578Z,9.55
2019-04-11T06:27:37.078Z,10.10
2019-04-11T06:30:09.986Z,10.32
2019-04-11T06:32:41.061Z,10.72
2019-04-11T06:35:22.043Z,10.30
2019-04-11T06:38:06.047Z,10.10
2019-04-11T06:40:39.904Z,10.03
2019-04-11T06:43:16.796Z,10.18
2019-04-11T06:46:04.971Z,10.35
2019-04-11T06:48:52.647Z,10.80
2019-04-11T06:51:41.797Z,9.88
2019-04-11T06:54:29.266Z,11.03
2019-04-11T06:57:03.942Z,10.72
2019-04-11T06:59:35.027Z,10.08
2019-04-11T07:02:19.078Z,10.65
2019-04-11T07:04:51.700Z,10.95
2019-04-11T07:07:25.767Z,11.33
2019-04-11T07:09:57.661Z,10.28
2019-04-11T07:12:29.114Z,11.00
2019-04-11T07:15:10.069Z,10.40
2019-04-11T07:17:59.523Z,10.00
2019-04-11T07:20:33.507Z,10.45
2019-04-11T07:23:22.315Z,10.98
2019-04-11T07:25:53.907Z,10.60
2019-04-11T07:28:25.295Z,10.68
2019-04-11T07:31:12.879Z,10.32
2019-04-11T07:33:59.135Z,10.93
2019-04-11T07:36:38.482Z,11.08
2019-04-11T07:39:12.904Z,10.53
2019-04-11T07:41:45.691Z,10.82
2019-04-11T07:44:30.498Z,10.80
2019-04-11T07:47:21.871Z,10.10
2019-04-11T07:49:55.218Z,10.23
2019-04-11T07:52:25.461Z,10.05
2019-04-11T07:54:56.876Z,10.30
2019-04-11T07:57:31.226Z,10.93
2019-04-11T08:00:33.232Z,10.98
2019-04-11T08:02:55.959Z,10.98
2019-04-11T08:05:39.457Z,10.68
2019-04-11T08:08:11.022Z,10.58
2019-04-11T08:10:58.563Z,11.40
2019-04-11T08:13:30.371Z,10.35
2019-04-11T08:16:18.240Z,11.50
2019-04-11T08:18:49.452Z,11.22
2019-04-11T08:21:37.259Z,10.00
2019-04-11T08:24:10.006Z,11.85
2019-04-11T08:27:00.934Z,11.53
2019-04-11T08:29:28.665Z,10.68
2019-04-11T08:32:13.755Z,11.35
2019-04-11T08:34:47.919Z,11.38
2019-04-11T08:37:35.777Z,11.22
2019-04-11T08:40:09.157Z,11.08
2019-04-11T08:42:43.392Z,11.18
2019-04-11T08:45:17.530Z,11.40
2019-04-11T08:47:54.548Z,11.40
2019-04-11T08:50:23.773Z,11.83
2019-04-11T08:53:11.219Z,10.88
2019-04-11T08:55:50.388Z,10.68
2019-04-11T08:58:16.169Z,10.53
2019-04-11T09:00:55.749Z,10.30
2019-04-11T09:03:57.369Z,11.70
2019-04-11T09:06:20.716Z,10.93
2019-04-11T09:09:06.956Z,10.48
2019-04-11T09:11:39.515Z,10.48
2019-04-11T09:14:28.411Z,10.85
2019-04-11T09:17:12.777Z,10.53
2019-04-11T09:19:54.996Z,10.82
2019-04-11T09:22:31.195Z,10.78
2019-04-11T09:25:12.762Z,10.00
2019-04-11T09:28:00.779Z,10.65
2019-04-11T09:30:49.324Z,11.00
2019-04-11T09:33:38.097Z,11.48
2019-04-11T09:36:28.942Z,10.30
2019-04-11T09:39:09.265Z,10.50
2019-04-11T09:41:40.666Z,11.22
2019-04-11T09:44:22.504Z,10.82
2019-04-11T09:47:11.032Z,10.68
2019-04-11T09:49:42.964Z,10.93
2019-04-11T09:52:14.337Z,11.38
2019-04-11T09:54:52.735Z,11.50
2019-04-11T09:57:29.008Z,10.43
2019-04-11T10:00:18.545Z,10.88
2019-04-11T10:02:50.580Z,10.93
2019-04-11T10:05:24.805Z,11.23
2019-04-11T10:07:57.966Z,10.32
2019-04-11T10:10:33.199Z,10.35
2019-04-11T10:13:24.799Z,11.10
2019-04-11T10:16:12.536Z,10.70
2019-04-11T10:19:00.671Z,10.30
2019-04-11T10:21:31.731Z,9.88
2019-04-11T10:24:05.687Z,10.88
2019-04-11T10:26:44.497Z,10.20
2019-04-11T10:29:31.914Z,9.40
2019-04-11T10:32:03.152Z,10.03
2019-04-11T10:34:52.222Z,10.70
2019-04-11T10:37:21.865Z,10.25
2019-04-11T10:39:53.552Z,9.60
2019-04-11T10:42:24.750Z,10.38
2019-04-11T10:45:14.482Z,10.25
2019-04-11T10:47:45.003Z,9.53
2019-04-11T10:50:36.045Z,9.33
2019-04-11T10:53:06.750Z,10.48
2019-04-11T10:55:54.776Z,10.00
2019-04-11T10:58:26.783Z,9.70
2019-04-11T11:01:05.515Z,9.83
2019-04-11T11:03:43.057Z,10.05
2019-04-11T11:06:15.393Z,10.00
2019-04-11T11:09:03.685Z,10.40
2019-04-11T11:11:38.635Z,9.80
2019-04-11T11:14:26.960Z,10.45
2019-04-11T11:17:04.520Z,10.43
2019-04-11T11:19:49.775Z,10.35
2019-04-11T11:22:14.894Z,10.85
2019-04-11T11:25:02.400Z,10.43
2019-04-11T11:27:34.738Z,10.13
2019-04-11T11:30:25.215Z,11.25
2019-04-11T11:32:58.125Z,10.65
2019-04-11T11:35:41.010Z,10.88
2019-04-11T11:38:15.474Z,10.82
2019-04-11T11:40:56.410Z,10.50
2019-04-11T11:43:28.011Z,10.55
2019-04-11T11:48:54.002Z,10.00
2019-04-11T11:51:27.008Z,10.23
2019-04-11T11:54:05.705Z,10.70
2019-04-11T11:56:36.783Z,9.73
2019-04-11T11:59:13.285Z,10.15
2019-04-11T12:01:47.689Z,10.45
2019-04-11T12:06:48.996Z,10.58
2019-04-11T12:09:36.419Z,11.08
2019-04-11T12:12:26.026Z,11.05
2019-04-11T12:15:16.950Z,10.28
2019-04-11T12:18:01.789Z,10.65
2019-04-11T12:20:36.689Z,9.93
2019-04-11T12:23:15.088Z,9.38
2019-04-11T12:25:47.321Z,9.23
2019-04-11T12:28:37.043Z,8.93
2019-04-11T12:31:09.303Z,10.05
2019-04-11T12:33:49.946Z,9.85
2019-04-11T12:36:23.005Z,10.53
2019-04-11T12:39:10.304Z,8.75
2019-04-11T12:41:48.814Z,9.25
2019-04-11T12:44:20.910Z,9.30
2019-04-11T12:46:55.274Z,9.98
2019-04-11T12:49:26.292Z,9.85
2019-04-11T12:52:15.859Z,10.08
2019-04-11T12:54:53.397Z,10.05
2019-04-11T12:57:41.904Z,9.78
2019-04-11T13:00:20.188Z,10.53
2019-04-11T13:03:04.364Z,10.50
2019-04-11T13:05:45.461Z,9.75
2019-04-11T13:08:20.088Z,9.85
2019-04-11T13:10:50.652Z,10.05
2019-04-11T13:13:40.202Z,10.28
2019-04-11T13:16:12.738Z,9.78
2019-04-11T13:18:54.446Z,10.98
2019-04-11T13:21:28.120Z,10.90
2019-04-11T13:24:09.939Z,10.70
2019-04-11T13:26:46.807Z,10.90
2019-04-11T13:29:34.041Z,11.43
2019-04-11T13:32:22.790Z,9.70
2019-04-11T13:35:14.659Z,10.13
2019-04-11T13:38:02.058Z,10.63
2019-04-11T13:40:45.597Z,9.55
2019-04-11T13:43:34.964Z,11.33
2019-04-11T13:46:23.506Z,11.65
2019-04-11T13:48:57.521Z,10.18
2019-04-11T13:51:31.390Z,10.45
2019-04-11T13:54:21.323Z,11.03
2019-04-11T13:57:09.556Z,10.25
2019-04-11T13:59:42.381Z,11.22
2019-04-11T14:04:47.841Z,9.70
2019-04-11T14:07:24.219Z,10.58
2019-04-11T14:09:55.279Z,9.98
2019-04-11T14:12:33.432Z,10.40
2019-04-11T14:15:06.234Z,10.20
2019-04-11T14:20:14.845Z,10.28
2019-04-11T14:22:45.868Z,11.40
2019-04-11T14:25:33.229Z,11.25
2019-04-11T14:28:08.306Z,11.88
2019-04-11T14:30:58.155Z,11.10
2019-04-11T14:33:29.735Z,11.45
2019-04-11T14:36:18.325Z,10.83
2019-04-11T14:38:52.241Z,12.05
2019-04-11T14:41:41.555Z,11.30
2019-04-11T14:44:09.125Z,11.40
2019-04-11T14:46:45.670Z,11.55
2019-04-11T14:49:15.060Z,11.20
2019-04-11T14:52:04.306Z,11.05
2019-04-11T14:54:38.068Z,10.82
2019-04-11T14:57:10.124Z,10.25
2019-04-11T14:59:43.700Z,12.50
2019-04-11T15:02:21.301Z,10.82
2019-04-11T15:04:58.393Z,10.90
2019-04-11T15:07:30.473Z,11.85
2019-04-11T15:10:17.997Z,11.40
2019-04-11T15:12:48.812Z,11.50
2019-04-11T15:15:28.733Z,11.28
2019-04-11T15:17:59.829Z,12.28
2019-04-11T15:20:55.196Z,11.70
2019-04-11T15:23:22.716Z,12.30
2019-04-11T15:26:08.112Z,11.40
2019-04-11T15:28:39.485Z,11.78
2019-04-11T15:31:19.570Z,12.13
2019-04-11T15:33:59.341Z,12.20
2019-04-11T15:36:30.036Z,12.68
2019-04-11T15:39:02.074Z,12.05
2019-04-11T15:41:33.555Z,11.20
2019-04-11T15:44:22.469Z,11.68
2019-04-11T15:46:52.951Z,11.15
2019-04-11T15:49:31.153Z,12.03
2019-04-11T15:52:00.336Z,11.97
2019-04-11T15:54:46.802Z,13.22
2019-04-11T15:57:17.961Z,11.73
2019-04-11T15:59:54.954Z,10.98
2019-04-11T16:02:31.508Z,12.23
2019-04-11T16:05:02.868Z,11.85
2019-04-11T16:07:50.797Z,11.57
2019-04-11T16:10:23.143Z,11.97
2019-04-11T16:13:00.004Z,11.43
2019-04-11T16:15:40.292Z,10.75
2019-04-11T16:18:16.090Z,11.38
2019-04-11T16:20:50.895Z,10.70
2019-04-11T16:23:30.329Z,11.03
2019-04-11T16:25:59.814Z,10.68
2019-04-11T16:28:49.093Z,10.38
2019-04-11T16:31:18.542Z,10.28
2019-04-11T16:33:52.448Z,11.20
2019-04-11T16:36:27.057Z,9.38
2019-04-11T16:39:14.160Z,10.93
2019-04-11T16:41:56.804Z,10.95
2019-04-11T16:44:37.112Z,10.58
2019-04-11T16:47:23.730Z,10.60
2019-04-11T16:49:56.770Z,11.20
2019-04-11T16:52:26.974Z,11.00
2019-04-11T16:54:56.491Z,11.55
2019-04-11T16:57:28.955Z,10.72
2019-04-11T16:59:58.440Z,10.25
2019-04-11T17:02:29.025Z,12.28
2019-04-11T17:04:59.529Z,10.18
2019-04-11T17:07:46.640Z,11.25
2019-04-11T17:10:18.697Z,10.82
2019-04-11T17:12:48.158Z,10.30
2019-04-11T17:15:17.771Z,10.38
2019-04-11T17:17:47.292Z,10.80
2019-04-11T17:20:18.769Z,10.58
2019-04-11T17:22:49.373Z,11.10
2019-04-11T17:25:20.516Z,10.85
2019-04-11T17:27:53.283Z,11.22
2019-04-11T17:30:24.649Z,9.35
2019-04-11T17:32:55.707Z,10.88
2019-04-11T17:35:27.309Z,10.82
2019-04-11T17:37:56.886Z,10.25
2019-04-11T17:40:27.994Z,9.85
2019-04-11T17:42:57.734Z,10.90
2019-04-11T17:45:27.409Z,11.08
2019-04-11T17:47:59.045Z,10.32
2019-04-11T17:50:32.768Z,10.60
2019-04-11T17:53:03.307Z,10.13
2019-04-11T17:55:33.222Z,10.53
2019-04-11T17:58:02.699Z,10.53
2019-04-11T18:00:40.239Z,10.95
2019-04-11T18:03:18.557Z,10.03
2019-04-11T18:05:49.254Z,10.58
2019-04-11T18:08:22.397Z,9.93
2019-04-11T18:10:55.788Z,10.68
2019-04-11T18:13:34.476Z,9.58
2019-04-11T18:16:07.448Z,10.55
2019-04-11T18:21:09.256Z,10.03
2019-04-11T18:23:41.863Z,10.32
2019-04-11T18:26:19.048Z,10.88
2019-04-11T18:28:54.877Z,10.30
2019-04-11T18:31:27.829Z,10.18
2019-04-11T18:34:02.414Z,9.83
2019-04-11T18:36:33.084Z,10.65
2019-04-11T18:39:05.984Z,10.35
2019-04-11T18:41:36.077Z,10.32
2019-04-11T18:44:05.775Z,10.35
2019-04-11T18:46:38.530Z,10.68
2019-04-11T18:49:09.368Z,14.10
2019-04-11T18:51:43.196Z,10.40
2019-04-11T18:54:13.929Z,10.03
2019-04-11T18:56:43.416Z,10.50
2019-04-11T18:59:15.888Z,10.25
2019-04-11T19:01:45.395Z,10.82
2019-04-11T19:04:15.005Z,10.45
2019-04-11T19:06:45.600Z,11.28
2019-04-11T19:09:16.281Z,11.18
2019-04-11T19:11:46.434Z,10.82
2019-04-11T19:14:16.692Z,11.10
2019-04-11T19:16:49.541Z,11.68
2019-04-11T19:19:19.991Z,11.03
2019-04-11T19:22:19.722Z,10.63
2019-04-11T19:24:55.290Z,14.87
2019-04-11T19:27:30.576Z,11.28
2019-04-11T19:30:02.221Z,10.75
2019-04-11T19:32:33.941Z,11.68
2019-04-11T19:35:07.038Z,12.25
2019-04-11T19:37:41.734Z,12.43
2019-04-11T19:40:10.176Z,11.48
2019-04-11T19:42:39.693Z,12.10
2019-04-11T19:45:10.408Z,12.70
2019-04-11T19:47:41.546Z,12.78
2019-04-11T19:50:12.286Z,12.28
2019-04-11T19:52:45.781Z,11.97
2019-04-11T19:55:23.261Z,13.10
2019-04-11T19:57:52.801Z,12.13
2019-04-11T20:00:26.625Z,12.20
2019-04-11T20:02:58.612Z,12.15
2019-04-11T20:05:28.065Z,13.03
2019-04-11T20:07:57.457Z,11.70
2019-04-11T20:10:30.536Z,13.15
2019-04-11T20:13:01.861Z,12.78
2019-04-11T20:15:36.919Z,12.53
2019-04-11T20:18:01.325Z,12.10
2019-04-11T20:20:30.724Z,11.95
2019-04-11T20:23:02.285Z,12.43
2019-04-11T20:25:36.401Z,16.95
2019-04-11T20:28:06.886Z,12.75
2019-04-11T20:30:40.880Z,11.73
2019-04-11T20:33:10.392Z,11.40
2019-04-11T20:35:40.606Z,12.40
2019-04-11T20:38:10.082Z,11.25
2019-04-11T20:40:39.505Z,12.28
2019-04-11T20:43:10.229Z,12.80
2019-04-11T20:45:41.622Z,12.23
2019-04-11T20:48:11.591Z,12.10
2019-04-11T20:50:41.037Z,18.65
2019-04-11T20:53:12.962Z,13.48
2019-04-11T20:55:42.628Z,12.37
2019-04-11T20:58:12.059Z,12.90
2019-04-11T21:00:50.450Z,12.55
2019-04-11T21:03:12.644Z,12.88
2019-04-11T21:05:42.116Z,12.07
2019-04-11T21:08:11.576Z,12.95
2019-04-11T21:10:41.060Z,13.05
2019-04-11T21:13:10.529Z,12.00
2019-04-11T21:15:40.050Z,12.65
2019-04-11T21:18:09.520Z,12.50
2019-04-11T21:20:39.619Z,12.70
2019-04-11T21:23:09.144Z,11.65
2019-04-11T21:25:38.648Z,12.93
2019-04-11T21:28:08.113Z,12.98
2019-04-11T21:30:37.665Z,14.58
2019-04-11T21:33:07.164Z,13.10
2019-04-11T21:35:36.592Z,13.30
2019-04-11T21:38:06.077Z,12.65
2019-04-11T21:40:36.020Z,13.75
2019-04-11T21:43:06.696Z,14.33
2019-04-11T21:45:36.577Z,12.85
2019-04-11T21:48:06.960Z,13.68
2019-04-11T21:50:40.327Z,12.55
2019-04-11T21:53:13.986Z,13.72
2019-04-11T21:58:14.675Z,13.80
2019-04-11T22:00:46.772Z,12.50
2019-04-11T22:03:18.013Z,13.53
2019-04-11T22:05:48.017Z,13.18
2019-04-11T22:08:17.461Z,13.45
2019-04-11T22:10:47.964Z,13.72
2019-04-11T22:13:17.407Z,14.18
2019-04-11T22:15:47.548Z,14.55
2019-04-11T22:18:17.067Z,12.73
2019-04-11T22:20:46.542Z,14.25
2019-04-11T22:23:16.089Z,14.15
2019-04-11T22:25:45.527Z,13.85
2019-04-11T22:28:17.431Z,13.72
2019-04-11T22:30:49.143Z,13.93
2019-04-11T22:33:29.697Z,14.05
2019-04-11T22:36:00.921Z,14.10
2019-04-11T22:38:31.077Z,13.83
2019-04-11T22:41:02.030Z,13.78
2019-04-11T22:43:33.227Z,13.90
2019-04-11T22:46:07.748Z,14.80
2019-04-11T22:48:36.797Z,13.95
2019-04-11T22:51:06.461Z,14.65
2019-04-11T22:53:38.456Z,14.93
2019-04-11T22:56:08.960Z,13.60
2019-04-11T22:58:38.917Z,14.25
2019-04-11T23:02:05.812Z,13.60
2019-04-11T23:04:36.886Z,14.18
2019-04-11T23:07:06.327Z,14.10
2019-04-11T23:09:35.802Z,14.58
2019-04-11T23:12:05.312Z,14.87
2019-04-11T23:14:38.472Z,14.05
2019-04-11T23:17:07.890Z,13.45
2019-04-11T23:19:38.521Z,14.28
2019-04-11T23:22:09.822Z,14.78
2019-04-11T23:24:39.057Z,14.18
2019-04-11T23:27:08.501Z,13.85
2019-04-11T23:29:38.812Z,14.00
2019-04-11T23:32:09.155Z,14.47
2019-04-11T23:34:39.540Z,14.63
2019-04-11T23:37:08.997Z,15.08
2019-04-11T23:39:38.447Z,15.45
2019-04-11T23:42:09.849Z,15.43
2019-04-11T23:44:39.307Z,14.43
2019-04-11T23:47:09.652Z,14.78
2019-04-11T23:49:39.104Z,14.38
2019-04-11T23:52:08.477Z,14.23
2019-04-11T23:54:37.908Z,14.38
2019-04-11T23:57:07.325Z,15.70
2019-04-11T23:59:36.711Z,14.68
